Time;durP1;ratioP1;P1;durP2;ratioP2;P2;SDS_P1;SDS_P2;PMS_P1;PMS_P2;Temp;Humidity;BMP_temperature;BMP_pressure;BME280_temperature;BME280_humidity;BME280_pressure;Samples;Min_cycle;Max_cycle;Signal;HPM_P1;HPM_P2
2023/09/17 00:02:20;;;;;;;10.43;7.72;;;18.80;99.90;;;;;;4967481;28;20031;-80
2023/09/17 00:04:46;;;;;;;12.35;8.75;;;18.90;99.90;;;;;;4956619;28;20026;-80
2023/09/17 00:07:11;;;;;;;13.02;9.23;;;18.80;99.90;;;;;;4976491;28;20340;-81
2023/09/17 00:09:37;;;;;;;11.43;8.32;;;18.80;99.90;;;;;;4970965;28;20390;-80
2023/09/17 00:12:03;;;;;;;10.18;7.63;;;18.80;99.90;;;;;;4950333;28;20113;-79
2023/09/17 00:14:29;;;;;;;9.68;6.80;;;18.70;99.90;;;;;;4969250;28;20027;-81
2023/09/17 00:16:57;;;;;;;12.95;7.53;;;18.70;99.90;;;;;;4966412;28;20069;-79
2023/09/17 00:19:23;;;;;;;7.55;6.43;;;18.70;99.90;;;;;;4948725;28;20378;-78
2023/09/17 00:21:51;;;;;;;8.13;6.43;;;18.70;99.90;;;;;;4969605;28;20518;-80
2023/09/17 00:24:17;;;;;;;6.60;4.70;;;18.60;99.90;;;;;;4967083;28;20018;-80
2023/09/17 00:26:42;;;;;;;4.05;3.75;;;18.50;99.90;;;;;;4967521;28;20053;-79
2023/09/17 00:29:08;;;;;;;3.30;2.88;;;18.40;99.90;;;;;;4967064;28;20486;-79
2023/09/17 00:31:34;;;;;;;3.42;3.13;;;18.40;99.90;;;;;;4970949;28;20101;-79
2023/09/17 00:34:00;;;;;;;4.22;3.88;;;18.40;99.90;;;;;;4973199;28;20023;-81
2023/09/17 00:36:26;;;;;;;4.22;3.70;;;18.40;99.90;;;;;;4970336;28;20205;-79
2023/09/17 00:39:00;;;;;;;3.83;3.47;;;18.30;99.90;;;;;;4954952;28;20594;-81
2023/09/17 00:41:26;;;;;;;3.70;3.35;;;18.20;99.90;;;;;;4954006;28;20545;-81
2023/09/17 00:43:52;;;;;;;3.13;2.85;;;18.20;99.90;;;;;;4952459;28;20026;-80
2023/09/17 00:46:19;;;;;;;3.53;3.33;;;18.20;99.90;;;;;;4971187;28;20290;-80
2023/09/17 00:48:45;;;;;;;3.10;2.90;;;18.20;99.90;;;;;;4954419;28;20041;-82
2023/09/17 00:51:11;;;;;;;2.92;2.83;;;18.10;99.90;;;;;;4953929;28;20014;-82
2023/09/17 00:53:37;;;;;;;3.67;2.95;;;18.20;99.90;;;;;;4970435;28;20097;-81
2023/09/17 00:56:03;;;;;;;3.40;3.10;;;18.20;99.90;;;;;;4970912;28;20382;-80
2023/09/17 00:58:30;;;;;;;4.10;3.10;;;18.10;99.90;;;;;;4970925;28;20025;-79
2023/09/17 01:00:58;;;;;;;2.78;2.67;;;18.00;99.90;;;;;;4970122;28;20026;-79
2023/09/17 01:03:25;;;;;;;2.92;2.72;;;18.00;99.90;;;;;;4967759;28;20981;-80
2023/09/17 01:05:51;;;;;;;2.95;2.75;;;18.00;99.90;;;;;;4950335;28;20538;-79
2023/09/17 01:08:17;;;;;;;2.72;2.60;;;18.00;99.90;;;;;;4970059;28;20552;-79
2023/09/17 01:10:43;;;;;;;2.75;2.65;;;18.00;99.90;;;;;;4972128;28;20031;-79
2023/09/17 01:13:09;;;;;;;2.50;2.40;;;18.00;99.90;;;;;;4970159;28;20566;-79
2023/09/17 01:15:35;;;;;;;2.47;2.40;;;18.00;99.90;;;;;;4958529;28;20030;-81
2023/09/17 01:18:05;;;;;;;2.05;2.00;;;18.10;99.90;;;;;;4950507;28;20099;-79
2023/09/17 01:20:34;;;;;;;2.42;2.33;;;18.10;99.90;;;;;;4970645;28;20543;-79
2023/09/17 01:23:10;;;;;;;2.65;2.55;;;18.20;99.90;;;;;;4968972;28;20041;-79
2023/09/17 01:25:42;;;;;;;1.77;1.77;;;18.20;99.90;;;;;;4972745;28;20038;-78
2023/09/17 01:28:12;;;;;;;3.30;3.20;;;18.10;99.90;;;;;;4956531;28;20034;-78
2023/09/17 01:30:41;;;;;;;3.17;2.97;;;18.00;99.90;;;;;;4971227;28;20501;-79
2023/09/17 01:33:10;;;;;;;2.83;2.72;;;17.60;99.90;;;;;;4969448;28;20033;-79
2023/09/17 01:36:03;;;;;;;3.50;2.38;;;17.50;99.90;;;;;;4968522;28;20104;-79
2023/09/17 01:38:33;;;;;;;2.40;2.30;;;17.50;99.90;;;;;;4968880;28;20961;-79
2023/09/17 01:41:02;;;;;;;2.33;2.22;;;17.50;99.90;;;;;;4966318;28;20282;-79
2023/09/17 01:43:29;;;;;;;1.98;1.98;;;17.60;99.90;;;;;;4971215;28;20065;-79
2023/09/17 01:45:55;;;;;;;1.90;1.90;;;17.60;99.90;;;;;;4971081;28;20018;-80
2023/09/17 01:48:22;;;;;;;2.00;1.90;;;17.60;99.90;;;;;;4951399;28;20930;-79
2023/09/17 01:50:50;;;;;;;2.10;2.10;;;17.60;99.90;;;;;;4969527;28;20553;-79
2023/09/17 01:53:16;;;;;;;2.38;2.28;;;17.60;99.90;;;;;;4968776;28;20574;-80
2023/09/17 01:55:44;;;;;;;2.33;2.22;;;17.70;99.90;;;;;;4958354;28;20053;-79
2023/09/17 01:58:10;;;;;;;2.13;2.13;;;17.70;99.90;;;;;;4971617;28;20035;-79
2023/09/17 02:00:36;;;;;;;2.00;2.00;;;17.70;99.90;;;;;;4972325;28;20372;-79
2023/09/17 02:03:04;;;;;;;1.98;1.98;;;17.70;99.90;;;;;;4969988;28;20022;-79
2023/09/17 02:05:29;;;;;;;1.88;1.88;;;17.70;99.90;;;;;;4971182;28;20338;-79
2023/09/17 02:07:57;;;;;;;2.40;2.30;;;17.80;99.90;;;;;;4971027;28;20177;-79
2023/09/17 02:10:23;;;;;;;2.00;2.00;;;17.80;99.90;;;;;;4958999;28;20077;-79
2023/09/17 02:12:49;;;;;;;2.03;2.03;;;17.70;99.90;;;;;;4950823;28;20260;-79
2023/09/17 02:15:18;;;;;;;1.92;1.92;;;17.80;99.90;;;;;;4953019;28;20031;-79
2023/09/17 02:17:44;;;;;;;1.83;1.83;;;17.80;99.90;;;;;;4965514;28;20023;-79
2023/09/17 02:20:11;;;;;;;2.22;2.17;;;17.80;99.90;;;;;;4951545;28;20057;-80
2023/09/17 02:22:40;;;;;;;2.13;2.13;;;17.90;99.90;;;;;;4950291;28;20015;-80
2023/09/17 02:25:06;;;;;;;1.83;1.83;;;17.80;99.90;;;;;;4969284;28;20475;-80
2023/09/17 02:27:35;;;;;;;2.05;2.00;;;17.80;99.90;;;;;;4956288;28;20034;-80
2023/09/17 02:30:02;;;;;;;1.80;1.80;;;17.90;99.90;;;;;;4968237;28;20023;-79
2023/09/17 02:32:28;;;;;;;1.85;1.85;;;17.90;99.90;;;;;;4969137;28;20042;-80
2023/09/17 02:34:53;;;;;;;1.98;1.92;;;17.90;99.90;;;;;;4952894;28;20344;-80
2023/09/17 02:37:19;;;;;;;1.95;1.95;;;17.90;99.90;;;;;;4966910;28;20026;-80
2023/09/17 02:39:44;;;;;;;1.85;1.83;;;18.00;99.90;;;;;;4969638;28;20030;-79
2023/09/17 02:42:10;;;;;;;1.80;1.80;;;18.10;99.90;;;;;;4969002;28;20532;-80
2023/09/17 02:44:36;;;;;;;2.50;2.30;;;18.20;99.90;;;;;;4967028;28;20282;-80
2023/09/17 02:47:02;;;;;;;2.00;2.00;;;18.10;99.90;;;;;;4964983;28;20080;-81
2023/09/17 02:49:28;;;;;;;1.95;1.95;;;18.20;99.90;;;;;;4978012;28;20022;-80
2023/09/17 02:51:54;;;;;;;2.17;2.08;;;18.30;99.90;;;;;;4981699;28;20037;-80
2023/09/17 02:54:19;;;;;;;1.90;1.90;;;18.30;99.90;;;;;;4964271;28;20030;-80
2023/09/17 02:56:45;;;;;;;1.85;1.85;;;18.40;99.90;;;;;;4962597;28;20478;-80
2023/09/17 02:59:11;;;;;;;1.60;1.60;;;18.40;99.90;;;;;;4980306;28;20043;-80
2023/09/17 03:01:37;;;;;;;2.95;1.75;;;18.40;99.90;;;;;;4983227;28;20273;-80
2023/09/17 03:04:02;;;;;;;1.95;1.95;;;18.50;99.90;;;;;;4980704;28;20037;-79
2023/09/17 03:06:30;;;;;;;2.00;2.00;;;18.50;99.90;;;;;;4964348;28;20033;-79
2023/09/17 03:08:58;;;;;;;6.13;2.20;;;18.50;99.90;;;;;;4965412;28;20400;-82
2023/09/17 03:11:26;;;;;;;1.70;1.70;;;18.50;99.90;;;;;;4980285;28;20094;-79
2023/09/17 03:13:52;;;;;;;2.30;2.20;;;18.60;99.90;;;;;;4983032;28;20115;-79
2023/09/17 03:16:18;;;;;;;1.90;1.80;;;18.60;99.90;;;;;;4982478;28;20026;-79
2023/09/17 03:18:45;;;;;;;2.38;2.28;;;18.60;99.90;;;;;;4982786;28;20076;-80
2023/09/17 03:21:11;;;;;;;1.95;1.90;;;18.60;99.90;;;;;;4981296;28;20019;-79
2023/09/17 03:23:37;;;;;;;2.40;2.30;;;18.60;99.90;;;;;;4982301;28;20332;-80
2023/09/17 03:26:04;;;;;;;1.60;1.60;;;18.60;99.90;;;;;;4979417;28;20258;-79
2023/09/17 03:28:33;;;;;;;1.98;1.98;;;18.60;99.90;;;;;;4982382;28;20034;-79
2023/09/17 03:30:59;;;;;;;1.88;1.88;;;18.60;99.90;;;;;;4981335;28;20030;-79
2023/09/17 03:33:25;;;;;;;2.28;2.17;;;18.60;99.90;;;;;;4982247;28;20021;-79
2023/09/17 03:35:51;;;;;;;1.92;1.92;;;18.70;99.90;;;;;;4982610;28;20026;-79
2023/09/17 03:38:17;;;;;;;2.45;1.88;;;18.60;99.90;;;;;;4963309;28;20533;-80
2023/09/17 03:40:43;;;;;;;2.00;2.00;;;18.60;99.90;;;;;;4964974;28;20053;-79
2023/09/17 03:43:09;;;;;;;2.03;1.92;;;18.60;99.90;;;;;;4980946;28;20192;-79
2023/09/17 03:45:35;;;;;;;1.40;1.40;;;18.60;99.90;;;;;;4964477;28;20081;-79
2023/09/17 03:48:01;;;;;;;1.95;1.90;;;18.60;99.90;;;;;;4963849;28;20121;-79
2023/09/17 03:50:30;;;;;;;2.03;1.90;;;18.50;99.90;;;;;;4982124;28;20084;-79
2023/09/17 03:52:58;;;;;;;1.60;1.60;;;18.50;99.90;;;;;;4964503;28;20031;-80
2023/09/17 03:55:24;;;;;;;1.85;1.85;;;18.50;99.90;;;;;;4962490;28;20121;-79
2023/09/17 03:57:50;;;;;;;1.45;1.45;;;18.50;99.90;;;;;;4962861;28;20053;-79
2023/09/17 04:00:17;;;;;;;2.13;2.03;;;18.50;99.90;;;;;;4964209;28;20187;-80
2023/09/17 04:02:44;;;;;;;1.60;1.60;;;18.50;99.90;;;;;;4981280;28;20442;-79
2023/09/17 04:05:11;;;;;;;1.65;1.65;;;18.40;99.90;;;;;;4985073;28;20104;-79
2023/09/17 04:07:46;;;;;;;1.83;1.83;;;18.40;99.90;;;;;;4967531;28;20513;-79
2023/09/17 04:10:13;;;;;;;3.00;2.80;;;18.40;99.90;;;;;;4984509;28;20026;-79
2023/09/17 04:12:42;;;;;;;1.77;1.77;;;18.30;99.90;;;;;;4985845;28;20034;-79
2023/09/17 04:15:13;;;;;;;2.25;2.15;;;18.30;99.90;;;;;;4973950;28;20081;-79
2023/09/17 04:17:39;;;;;;;1.92;1.90;;;18.20;99.90;;;;;;4964594;28;20030;-79
2023/09/17 04:20:16;;;;;;;1.55;1.55;;;18.20;99.90;;;;;;4968027;28;20023;-79
2023/09/17 04:22:42;;;;;;;1.50;1.50;;;18.20;99.90;;;;;;4984398;28;20029;-79
2023/09/17 04:25:09;;;;;;;2.15;2.08;;;18.20;99.90;;;;;;4966889;28;20072;-79
2023/09/17 04:27:42;;;;;;;1.42;1.42;;;18.10;99.90;;;;;;4967482;28;20871;-79
2023/09/17 04:30:09;;;;;;;2.28;2.17;;;18.10;99.90;;;;;;4984950;28;20160;-79
2023/09/17 04:32:39;;;;;;;1.70;1.70;;;18.10;99.90;;;;;;4967969;28;20438;-79
2023/09/17 04:35:07;;;;;;;1.73;1.73;;;18.10;99.90;;;;;;4983978;28;20446;-79
2023/09/17 04:37:34;;;;;;;2.22;2.00;;;18.10;99.90;;;;;;4985740;28;20019;-79
2023/09/17 04:39:59;;;;;;;1.80;1.70;;;18.10;99.90;;;;;;4984106;28;20049;-78
2023/09/17 04:42:25;;;;;;;1.90;1.90;;;18.00;99.90;;;;;;4967408;28;20410;-79
2023/09/17 04:44:51;;;;;;;1.95;1.85;;;18.00;99.90;;;;;;4985963;28;20039;-79
2023/09/17 04:47:16;;;;;;;1.90;1.90;;;18.00;99.90;;;;;;4984234;28;20027;-79
2023/09/17 04:49:42;;;;;;;1.88;1.88;;;18.00;99.90;;;;;;4984879;28;20100;-79
2023/09/17 04:52:07;;;;;;;2.00;2.00;;;18.00;99.90;;;;;;4985221;28;20061;-79
2023/09/17 04:54:33;;;;;;;2.00;1.90;;;18.00;99.90;;;;;;4985580;28;20018;-80
2023/09/17 04:56:59;;;;;;;2.08;1.98;;;18.00;99.90;;;;;;4985931;28;20050;-79
2023/09/17 04:59:24;;;;;;;1.85;1.75;;;17.90;99.90;;;;;;4984532;28;20088;-79
2023/09/17 05:01:50;;;;;;;1.67;1.63;;;17.90;99.90;;;;;;4984324;28;20026;-80
2023/09/17 05:04:15;;;;;;;1.70;1.70;;;17.90;99.90;;;;;;4983759;28;20655;-79
2023/09/17 05:06:44;;;;;;;1.63;1.63;;;17.90;99.90;;;;;;4966497;28;20034;-80
2023/09/17 05:09:10;;;;;;;2.00;1.90;;;17.90;99.90;;;;;;4984234;28;20038;-80
2023/09/17 05:11:35;;;;;;;2.17;2.08;;;17.80;99.90;;;;;;4985350;28;20027;-80
2023/09/17 05:14:01;;;;;;;2.00;2.00;;;17.80;99.90;;;;;;4982777;28;20454;-79
2023/09/17 05:16:27;;;;;;;1.83;1.80;;;17.80;99.90;;;;;;4964104;28;20109;-80
2023/09/17 05:18:53;;;;;;;2.10;2.10;;;17.80;99.90;;;;;;4980449;28;20030;-79
2023/09/17 05:21:19;;;;;;;2.35;2.25;;;17.80;99.90;;;;;;4965176;28;20021;-79
2023/09/17 05:23:45;;;;;;;2.03;2.03;;;17.90;99.90;;;;;;4984123;28;20026;-80
2023/09/17 05:26:11;;;;;;;4.05;2.50;;;17.90;99.90;;;;;;4982969;28;20026;-80
2023/09/17 05:28:36;;;;;;;1.98;1.95;;;17.90;99.90;;;;;;4983460;28;20096;-80
2023/09/17 05:31:03;;;;;;;2.10;2.10;;;17.90;99.90;;;;;;4984970;28;20040;-80
2023/09/17 05:33:32;;;;;;;2.00;2.00;;;17.90;99.90;;;;;;4983557;28;20094;-80
2023/09/17 05:35:57;;;;;;;2.88;2.08;;;17.90;99.90;;;;;;4985737;28;20034;-81
2023/09/17 05:38:24;;;;;;;2.67;2.58;;;17.90;99.90;;;;;;4983936;28;20494;-81
2023/09/17 05:40:50;;;;;;;2.38;2.28;;;17.80;99.90;;;;;;4998408;28;20045;-80
2023/09/17 05:43:16;;;;;;;2.28;2.17;;;17.90;99.90;;;;;;4972263;28;20109;-81
2023/09/17 05:45:41;;;;;;;2.05;1.90;;;17.90;99.90;;;;;;4983484;28;20039;-80
2023/09/17 05:48:09;;;;;;;1.92;1.90;;;17.90;99.90;;;;;;4983420;28;20026;-81
2023/09/17 05:50:36;;;;;;;2.38;2.28;;;17.90;99.90;;;;;;4983724;28;20564;-80
2023/09/17 05:53:02;;;;;;;2.40;2.30;;;17.90;99.90;;;;;;4984139;28;20018;-80
2023/09/17 05:55:28;;;;;;;2.30;2.20;;;17.90;99.90;;;;;;4964547;28;20554;-80
2023/09/17 05:57:54;;;;;;;2.65;2.45;;;17.90;99.90;;;;;;4965642;28;20133;-81
2023/09/17 06:00:20;;;;;;;2.10;2.10;;;18.00;99.90;;;;;;4965566;28;20404;-80
2023/09/17 06:02:45;;;;;;;2.17;2.08;;;18.00;99.90;;;;;;4983461;28;20538;-80
2023/09/17 06:05:13;;;;;;;2.72;2.50;;;18.00;99.90;;;;;;4958569;28;20053;-80
2023/09/17 06:07:39;;;;;;;2.20;2.10;;;18.00;99.90;;;;;;4964360;28;20295;-80
2023/09/17 06:10:05;;;;;;;2.90;2.63;;;18.10;99.90;;;;;;4983310;28;20105;-81
2023/09/17 06:12:32;;;;;;;2.25;2.15;;;18.10;99.90;;;;;;4966641;28;20065;-81
2023/09/17 06:14:57;;;;;;;2.10;2.10;;;18.10;99.90;;;;;;4963610;28;20370;-81
2023/09/17 06:17:23;;;;;;;2.17;2.17;;;18.10;99.90;;;;;;4983489;28;20029;-81
2023/09/17 06:19:48;;;;;;;2.42;2.33;;;18.10;99.90;;;;;;4982586;28;20030;-81
2023/09/17 06:22:14;;;;;;;2.70;2.60;;;18.10;99.90;;;;;;4965009;28;20022;-80
2023/09/17 06:24:40;;;;;;;2.53;2.42;;;18.10;99.90;;;;;;4966110;28;20031;-80
2023/09/17 06:27:05;;;;;;;2.70;2.60;;;18.10;99.90;;;;;;4964689;28;20088;-81
2023/09/17 06:29:31;;;;;;;2.65;2.55;;;18.20;99.90;;;;;;4962871;28;20034;-81
2023/09/17 06:32:08;;;;;;;2.13;2.03;;;18.20;99.90;;;;;;4966464;28;20034;-81
2023/09/17 06:34:35;;;;;;;2.03;2.00;;;18.20;99.90;;;;;;4964049;28;20022;-81
2023/09/17 06:37:04;;;;;;;2.15;2.05;;;18.30;99.90;;;;;;4983300;28;20073;-81
2023/09/17 06:39:33;;;;;;;2.10;2.00;;;18.20;99.90;;;;;;4981652;28;20026;-81
2023/09/17 06:41:58;;;;;;;2.38;2.25;;;18.30;99.90;;;;;;4982722;28;20079;-81
2023/09/17 06:44:27;;;;;;;1.98;1.88;;;18.30;99.90;;;;;;4983805;28;20022;-82
2023/09/17 06:47:09;;;;;;;2.30;2.20;;;18.30;99.90;;;;;;4963641;28;20124;-82
2023/09/17 06:49:35;;;;;;;1.80;1.80;;;18.30;99.90;;;;;;4964324;28;20030;-82
2023/09/17 06:52:03;;;;;;;1.98;1.95;;;18.30;99.90;;;;;;4962458;28;20625;-81
2023/09/17 06:54:29;;;;;;;2.75;2.65;;;18.30;99.90;;;;;;4982133;28;20093;-81
2023/09/17 06:56:54;;;;;;;2.45;2.35;;;18.40;99.90;;;;;;4982325;28;20109;-82
2023/09/17 06:59:23;;;;;;;3.97;2.33;;;18.40;99.90;;;;;;4981230;28;20026;-82
2023/09/17 07:01:51;;;;;;;2.28;2.15;;;18.40;99.90;;;;;;4965281;28;20029;-81
2023/09/17 07:04:17;;;;;;;2.63;2.53;;;18.50;99.90;;;;;;4981628;28;20022;-82
2023/09/17 07:06:43;;;;;;;2.00;1.90;;;18.50;99.90;;;;;;4976964;28;20038;-81
2023/09/17 07:09:08;;;;;;;2.22;2.13;;;18.60;99.90;;;;;;4965296;28;20026;-81
2023/09/17 07:11:36;;;;;;;2.03;2.00;;;18.60;99.90;;;;;;4981820;28;20392;-81
2023/09/17 07:14:09;;;;;;;2.08;1.98;;;18.50;99.90;;;;;;4964472;28;20113;-81
2023/09/17 07:16:39;;;;;;;2.00;1.90;;;18.60;99.90;;;;;;4964693;28;20137;-81
2023/09/17 07:19:05;;;;;;;2.22;2.03;;;18.50;99.90;;;;;;4981990;28;20022;-81
2023/09/17 07:21:40;;;;;;;1.92;1.92;;;18.50;99.90;;;;;;4982442;28;20034;-82
2023/09/17 07:24:06;;;;;;;1.92;1.90;;;18.50;99.90;;;;;;4981225;28;20022;-81
2023/09/17 07:26:33;;;;;;;1.88;1.73;;;18.60;99.90;;;;;;4965354;28;20076;-82
2023/09/17 07:28:59;;;;;;;1.50;1.50;;;18.60;99.90;;;;;;4964577;28;20030;-82
2023/09/17 07:31:27;;;;;;;1.88;1.88;;;18.60;99.90;;;;;;4982701;28;20030;-81
2023/09/17 07:33:56;;;;;;;1.55;1.55;;;18.60;99.90;;;;;;4992721;28;20022;-81
2023/09/17 07:36:28;;;;;;;1.75;1.65;;;18.60;99.90;;;;;;4990403;28;20134;-82
2023/09/17 07:38:57;;;;;;;82.57;37.58;;;18.60;99.90;;;;;;4981475;28;20030;-80
2023/09/17 07:41:25;;;;;;;3.88;3.67;;;18.70;99.90;;;;;;4961958;28;20122;-81
2023/09/17 07:44:01;;;;;;;1.45;1.45;;;18.70;99.90;;;;;;4964212;28;20820;-81
2023/09/17 07:46:30;;;;;;;1.50;1.50;;;18.70;99.90;;;;;;4981253;28;20110;-82
2023/09/17 07:48:55;;;;;;;2.28;2.08;;;18.80;99.90;;;;;;4963306;28;20077;-82
2023/09/17 07:51:21;;;;;;;1.85;1.85;;;18.80;99.90;;;;;;4960432;28;20923;-81
2023/09/17 07:53:46;;;;;;;1.75;1.70;;;18.90;99.90;;;;;;4979921;28;20049;-81
2023/09/17 07:56:21;;;;;;;2.00;2.00;;;18.90;99.90;;;;;;4957094;28;20987;-83
2023/09/17 07:58:47;;;;;;;1.80;1.80;;;19.00;99.90;;;;;;4958065;28;20030;-80
2023/09/17 08:01:14;;;;;;;1.75;1.75;;;19.00;99.90;;;;;;4972940;28;20055;-78
2023/09/17 08:03:40;;;;;;;1.95;1.95;;;19.10;99.90;;;;;;4977242;28;20026;-81
2023/09/17 08:06:09;;;;;;;2.40;2.22;;;19.10;99.90;;;;;;4976304;28;20198;-81
2023/09/17 08:08:37;;;;;;;1.75;1.65;;;19.20;99.90;;;;;;4955955;28;20065;-79
2023/09/17 08:11:03;;;;;;;1.60;1.50;;;19.20;99.90;;;;;;4951211;28;20027;-81
2023/09/17 08:13:40;;;;;;;2.15;2.05;;;19.30;99.90;;;;;;4958371;28;20516;-81
2023/09/17 08:16:06;;;;;;;1.48;1.48;;;19.40;99.90;;;;;;4980713;28;20325;-80
2023/09/17 08:18:34;;;;;;;1.27;1.27;;;19.50;99.90;;;;;;4976965;28;20112;-83
2023/09/17 08:21:00;;;;;;;2.10;2.00;;;19.60;99.90;;;;;;4962043;28;20294;-80
2023/09/17 08:23:26;;;;;;;2.33;2.20;;;19.70;99.90;;;;;;4980880;28;20022;-79
2023/09/17 08:25:52;;;;;;;14.68;11.30;;;19.80;99.90;;;;;;4982370;28;20038;-80
2023/09/17 08:28:22;;;;;;;2.08;1.90;;;19.90;99.90;;;;;;4981225;28;20041;-82
2023/09/17 08:30:51;;;;;;;1.63;1.58;;;20.00;99.90;;;;;;4964712;28;20446;-81
2023/09/17 08:33:16;;;;;;;1.67;1.67;;;20.20;99.90;;;;;;4980564;28;20031;-81
2023/09/17 08:35:42;;;;;;;1.67;1.67;;;20.40;99.90;;;;;;4980882;28;20052;-81
2023/09/17 08:38:08;;;;;;;1.88;1.77;;;20.40;99.90;;;;;;4966417;28;20093;-81
2023/09/17 08:40:35;;;;;;;1.92;1.92;;;20.50;99.90;;;;;;4978130;28;20034;-83
2023/09/17 08:43:02;;;;;;;2.38;2.17;;;20.50;99.90;;;;;;4980720;28;20022;-81
2023/09/17 08:45:29;;;;;;;2.67;2.45;;;20.60;99.90;;;;;;4979530;28;20390;-80
2023/09/17 08:47:55;;;;;;;1.67;1.63;;;20.70;99.90;;;;;;4973914;28;20026;-78
2023/09/17 08:50:21;;;;;;;47.38;19.45;;;20.70;99.90;;;;;;4980418;28;20501;-79
2023/09/17 08:52:54;;;;;;;1.55;1.52;;;20.90;99.90;;;;;;4963152;28;20427;-80
2023/09/17 08:55:22;;;;;;;1.63;1.52;;;21.00;99.90;;;;;;4967536;28;20050;-79
2023/09/17 08:58:00;;;;;;;2.05;1.95;;;21.20;99.90;;;;;;4983893;28;20105;-80
2023/09/17 09:00:32;;;;;;;1.77;1.67;;;21.40;99.90;;;;;;4984744;28;20026;-80
2023/09/17 09:03:07;;;;;;;1.90;1.80;;;21.70;99.90;;;;;;4964125;28;20108;-78
2023/09/17 09:05:35;;;;;;;2.20;2.10;;;22.00;99.90;;;;;;4965578;28;20068;-77
2023/09/17 09:08:03;;;;;;;1.85;1.73;;;22.30;99.90;;;;;;4964517;28;20049;-78
2023/09/17 09:10:31;;;;;;;3.00;1.75;;;22.80;99.90;;;;;;4960426;28;20371;-80
2023/09/17 09:13:00;;;;;;;2.20;2.05;;;22.90;99.90;;;;;;4966055;28;20459;-79
2023/09/17 09:15:26;;;;;;;1.80;1.70;;;23.00;99.90;;;;;;4982956;28;20019;-79
2023/09/17 09:17:54;;;;;;;1.48;1.42;;;22.90;99.90;;;;;;4983900;28;20025;-83
2023/09/17 09:20:21;;;;;;;13.75;6.28;;;22.90;99.90;;;;;;4967030;28;20460;-82
2023/09/17 09:22:48;;;;;;;1.92;1.83;;;23.10;99.90;;;;;;4965763;28;20061;-81
2023/09/17 09:25:15;;;;;;;1.77;1.67;;;23.30;99.90;;;;;;4985082;28;20756;-79
2023/09/17 09:27:42;;;;;;;1.23;1.23;;;23.10;99.90;;;;;;4972940;28;20034;-79
2023/09/17 09:30:09;;;;;;;1.58;1.45;;;23.00;99.90;;;;;;4959838;28;20022;-77
2023/09/17 09:32:36;;;;;;;1.38;1.38;;;22.80;99.90;;;;;;4979065;28;20105;-77
2023/09/17 09:35:05;;;;;;;1.30;1.30;;;22.60;99.90;;;;;;4981840;28;20034;-77
2023/09/17 09:37:33;;;;;;;1.90;1.88;;;22.50;99.90;;;;;;4982298;28;20022;-77
2023/09/17 09:40:02;;;;;;;1.75;1.75;;;22.60;99.90;;;;;;4984359;28;20025;-77
2023/09/17 09:42:28;;;;;;;1.70;1.60;;;22.50;99.90;;;;;;4965985;28;20564;-79
2023/09/17 09:44:54;;;;;;;1.77;1.77;;;22.40;99.90;;;;;;4982470;28;20101;-79
2023/09/17 09:47:22;;;;;;;1.60;1.60;;;22.60;99.90;;;;;;4963500;28;20018;-79
2023/09/17 09:49:48;;;;;;;1.20;1.20;;;22.80;99.90;;;;;;4966671;28;20652;-79
2023/09/17 09:52:15;;;;;;;0.88;0.88;;;22.90;99.90;;;;;;4982476;28;20028;-80
2023/09/17 09:54:42;;;;;;;1.52;1.52;;;22.80;99.90;;;;;;4982508;28;20026;-80
2023/09/17 09:57:10;;;;;;;4.47;1.38;;;22.80;99.90;;;;;;4982031;28;20615;-79
2023/09/17 09:59:36;;;;;;;1.20;1.20;;;22.80;99.90;;;;;;4981021;28;20129;-79
2023/09/17 10:02:10;;;;;;;1.50;1.40;;;22.80;99.90;;;;;;4982471;28;20014;-78
2023/09/17 10:04:38;;;;;;;1.40;1.40;;;22.70;99.90;;;;;;4982485;28;20508;-77
2023/09/17 10:07:05;;;;;;;1.20;1.20;;;22.70;99.90;;;;;;4982226;28;20058;-77
2023/09/17 10:09:30;;;;;;;1.05;1.05;;;22.70;99.90;;;;;;4982233;28;20061;-77
2023/09/17 10:11:57;;;;;;;1.10;1.10;;;22.70;99.90;;;;;;4964809;28;20034;-80
2023/09/17 10:14:25;;;;;;;1.40;1.40;;;22.70;99.90;;;;;;4981421;28;20446;-77
2023/09/17 10:16:52;;;;;;;0.93;0.93;;;22.70;99.90;;;;;;4964451;28;20030;-77
2023/09/17 10:19:21;;;;;;;3.55;1.88;;;23.00;99.90;;;;;;5122424;23;20229;-77
2023/09/17 10:21:48;;;;;;;1.63;1.52;;;23.30;99.90;;;;;;4958772;28;20061;-78
2023/09/17 10:24:18;;;;;;;1.70;1.60;;;23.50;99.90;;;;;;4964356;28;20219;-77
2023/09/17 10:26:44;;;;;;;1.58;1.58;;;23.50;99.90;;;;;;4962343;28;20078;-81
2023/09/17 10:29:12;;;;;;;1.15;1.15;;;23.60;99.90;;;;;;4945400;28;20100;-81
2023/09/17 10:31:39;;;;;;;1.30;1.27;;;23.90;99.90;;;;;;4960777;28;20419;-81
2023/09/17 10:34:05;;;;;;;1.30;1.30;;;24.20;99.90;;;;;;4969996;28;20104;-79
2023/09/17 10:36:33;;;;;;;1.33;1.33;;;24.60;99.90;;;;;;4969496;28;20523;-79
2023/09/17 10:38:59;;;;;;;1.45;1.45;;;24.80;99.90;;;;;;4970920;28;20019;-78
2023/09/17 10:41:32;;;;;;;6.63;1.38;;;25.10;99.90;;;;;;4974377;28;20023;-79
2023/09/17 10:43:59;;;;;;;1.67;1.63;;;25.20;99.90;;;;;;4972975;28;20045;-81
2023/09/17 10:46:28;;;;;;;1.65;1.55;;;25.30;99.90;;;;;;4958229;28;20038;-84
2023/09/17 10:48:57;;;;;;;1.10;1.10;;;25.30;99.90;;;;;;4976139;28;20018;-84
2023/09/17 10:51:25;;;;;;;1.45;1.45;;;25.10;99.90;;;;;;4956947;28;20102;-85
2023/09/17 10:53:50;;;;;;;1.70;1.70;;;25.00;99.90;;;;;;4955224;28;20070;-81
2023/09/17 10:56:17;;;;;;;1.35;1.35;;;24.60;99.90;;;;;;4974989;28;20096;-83
2023/09/17 10:58:45;;;;;;;1.67;1.67;;;24.30;99.90;;;;;;4974251;28;20034;-83
2023/09/17 11:01:15;;;;;;;1.60;1.50;;;24.20;99.90;;;;;;4965236;28;20035;-83
2023/09/17 11:03:44;;;;;;;1.20;1.20;;;24.20;99.90;;;;;;4945400;28;20034;-81
2023/09/17 11:06:17;;;;;;;1.48;1.40;;;24.40;99.90;;;;;;4948989;28;20038;-82
2023/09/17 11:08:45;;;;;;;1.60;1.50;;;24.70;99.90;;;;;;4971516;28;20034;-81
2023/09/17 11:11:14;;;;;;;1.63;1.52;;;24.70;99.90;;;;;;4965445;28;20038;-87
2023/09/17 11:13:43;;;;;;;1.70;1.60;;;24.60;99.90;;;;;;4972622;28;20029;-83
2023/09/17 11:16:09;;;;;;;1.40;1.40;;;24.60;99.90;;;;;;4958737;28;20031;-84
2023/09/17 11:18:34;;;;;;;1.65;1.55;;;24.90;99.90;;;;;;4960598;28;20023;-84
2023/09/17 11:21:06;;;;;;;1.27;1.27;;;25.00;99.90;;;;;;4963304;28;20127;-83
2023/09/17 11:23:46;;;;;;;1.50;1.50;;;24.90;99.90;;;;;;4962500;28;20054;-80
2023/09/17 11:26:15;;;;;;;2.95;2.47;;;24.90;99.90;;;;;;4969690;28;20081;-80
2023/09/17 11:28:41;;;;;;;1.50;1.40;;;24.80;99.90;;;;;;4973191;28;20041;-80
2023/09/17 11:31:09;;;;;;;1.10;1.10;;;24.70;99.90;;;;;;4972947;28;20022;-81
2023/09/17 11:33:37;;;;;;;1.13;1.13;;;24.50;99.90;;;;;;4969208;28;20138;-80
2023/09/17 11:36:04;;;;;;;1.35;1.33;;;24.30;99.90;;;;;;4973236;28;20035;-80
2023/09/17 11:38:30;;;;;;;2.08;1.00;;;24.30;99.90;;;;;;4973980;28;20108;-83
2023/09/17 11:41:05;;;;;;;1.40;1.40;;;24.60;99.90;;;;;;4958885;28;20084;-79
2023/09/17 11:43:32;;;;;;;1.40;1.30;;;24.70;99.90;;;;;;4974108;28;20030;-80
2023/09/17 11:45:58;;;;;;;1.30;1.30;;;24.70;99.90;;;;;;4967304;28;20107;-80
2023/09/17 11:48:26;;;;;;;1.20;1.20;;;24.90;99.90;;;;;;4959701;28;20034;-83
2023/09/17 11:50:52;;;;;;;1.02;1.02;;;25.30;99.90;;;;;;4955512;28;20034;-79
2023/09/17 11:53:19;;;;;;;1.45;1.45;;;25.50;99.90;;;;;;4968944;28;20031;-79
2023/09/17 11:55:49;;;;;;;12.65;5.85;;;25.70;99.90;;;;;;4971376;28;20106;-78
2023/09/17 11:58:21;;;;;;;1.63;1.63;;;25.70;99.90;;;;;;4971670;28;20026;-79
2023/09/17 12:00:46;;;;;;;1.40;1.40;;;25.60;99.90;;;;;;4973133;28;20081;-80
2023/09/17 12:03:13;;;;;;;1.30;1.30;;;25.60;99.90;;;;;;4974132;28;20425;-87
2023/09/17 12:05:39;;;;;;;1.27;1.27;;;25.70;99.90;;;;;;4973923;28;20533;-88
2023/09/17 12:08:06;;;;;;;1.20;1.20;;;25.70;99.90;;;;;;4961567;28;20026;-85
2023/09/17 12:10:37;;;;;;;1.40;1.40;;;25.50;99.90;;;;;;4973501;28;20015;-88
2023/09/17 12:13:05;;;;;;;1.10;1.10;;;25.50;99.90;;;;;;4962135;28;20691;-85
2023/09/17 12:15:31;;;;;;;1.30;1.30;;;25.60;99.90;;;;;;4971974;28;20182;-83
2023/09/17 12:17:57;;;;;;;0.98;0.98;;;25.60;99.90;;;;;;4971498;28;20387;-79
2023/09/17 12:20:49;;;;;;;1.02;1.02;;;25.40;99.90;;;;;;4971291;28;20073;-79
2023/09/17 12:23:22;;;;;;;1.08;1.08;;;25.40;99.90;;;;;;4971414;28;20045;-79
2023/09/17 12:25:48;;;;;;;1.23;1.23;;;25.40;99.90;;;;;;4972406;28;20086;-81
2023/09/17 12:28:14;;;;;;;1.13;1.13;;;25.50;99.90;;;;;;4978130;28;20050;-80
2023/09/17 12:30:42;;;;;;;0.98;0.98;;;25.80;99.90;;;;;;4955771;28;20487;-80
2023/09/17 12:33:09;;;;;;;1.27;0.95;;;25.90;99.90;;;;;;4975759;28;20105;-83
2023/09/17 12:35:38;;;;;;;0.98;0.98;;;26.00;99.90;;;;;;4965137;28;20032;-80
2023/09/17 12:38:07;;;;;;;1.05;1.05;;;26.00;99.90;;;;;;4975570;28;20479;-83
2023/09/17 12:40:32;;;;;;;1.15;1.15;;;25.90;99.90;;;;;;4973717;28;20113;-79
2023/09/17 12:43:04;;;;;;;1.00;1.00;;;25.90;99.90;;;;;;4963796;28;20153;-79
2023/09/17 12:48:05;;;;;;;1.00;1.00;;;26.40;99.90;;;;;;5014224;23;20060;-83
2023/09/17 12:50:32;;;;;;;1.10;1.10;;;26.70;99.90;;;;;;5002634;28;20073;-80